Flight Track Log - Related Links

Times and Time Zones

All times are in EDT time to prevent confusion due to time zone crossing. See the UAL594 flight status page for this flight to view local times or setup timezone preferences in your user account.

Time Position Orientation Groundspeed Altitude Reporting Facility
EDT Latitude Longitude Course Direction KTS MPH feet Rate Location/Type
Wed 06:03:03 AM 39.8600 -75.2806 311° West 165 190 800  Level FAA TRACON SMA TRACON (SMA)
Wed 06:03:23 AM 39.8553 -75.3008 253° West 166 191 1,600 1,800 Climbing FAA TRACON SMA TRACON (SMA)
Wed 06:03:43 AM 39.8500 -75.3206 251° West 190 219 2,000 2,000 Climbing FAA TRACON SMA TRACON (SMA)
Wed 06:04:02 AM 39.8431 -75.3489 252° West 214 246 2,900 2,700 Climbing FAA TRACON SMA TRACON (SMA)
Wed 06:04:23 AM 39.8372 -75.3736 253° West 229 264 3,800 3,000 Climbing FAA TRACON SMA TRACON (SMA)
Wed 06:04:42 AM 39.8372 -75.3992 270° West 233 268 4,900 3,300 Climbing FAA TRACON SMA TRACON (SMA)
Wed 06:05:00 AM 40.0999 -75.4499 323° Northwest  Level FlightAware Approximate
Wed 06:05:03 AM 39.8519 -75.4256 306° West 252 290 6,000  Level FAA TRACON SMA TRACON (SMA)
Wed 06:05:22 AM 39.8717 -75.4372 336° Northwest 255 293 7,000 3,150 Climbing FAA TRACON SMA TRACON (SMA)
Wed 06:05:43 AM 39.8931 -75.4450 344° North 260 299 8,100 3,600 Climbing FAA TRACON SMA TRACON (SMA)
Wed 06:06:00 AM 40.1761 -75.5260 323° Northwest  Level FlightAware Approximate
Wed 06:06:02 AM 39.9208 -75.4528 348° North 268 308 9,400  Level FAA TRACON SMA TRACON (SMA)
Wed 06:06:23 AM 39.9425 -75.4592 347° North 259 298 10,400 2,341 Climbing FAA TRACON SMA TRACON (SMA)
Wed 06:06:43 AM 39.9653 -75.4675 344° North 269 310 11,000 1,610 Climbing FAA TRACON SMA TRACON (SMA)
Wed 06:07:00 AM 40.2490 -75.5984 311° West  Level FlightAware Approximate
Wed 06:07:04 AM 39.9950 -75.4800 342° North 297 342 11,500  Level FAA TRACON SMA TRACON (SMA)
Wed 06:07:24 AM 40.0219 -75.4906 343° North 328 377 11,900 1,500 Climbing FAA TRACON SMA TRACON (SMA)
Wed 06:07:44 AM 40.0500 -75.5000 346° North 338 389 12,500 1,500 Climbing FAA TRACON SMA TRACON (SMA)
Wed 06:08:00 AM 40.3120 -75.6930 311° West  Level FlightAware Approximate
Wed 06:08:04 AM 40.0861 -75.5114 346° North 346 398 12,900  Level FAA TRACON SMA TRACON (SMA)
Wed 06:08:24 AM 40.1122 -75.5194 347° North 348 400 13,000 300 Climbing FAA TRACON SMA TRACON (SMA)
Wed 06:08:44 AM 40.1433 -75.5314 344° North 352 405 13,100 450 Climbing FAA TRACON SMA TRACON (SMA)
Wed 06:09:04 AM 40.1811 -75.5444 345° North 352 405 13,300 1,077 Climbing FAA TRACON SMA TRACON (SMA)
Wed 06:09:23 AM 40.2078 -75.5525 347° North 354 407 13,800 2,100 Climbing FAA TRACON SMA TRACON (SMA)
Wed 06:09:44 AM 40.2361 -75.5764 327° Northwest 353 406 14,700 2,780 Climbing FAA TRACON SMA TRACON (SMA)
Wed 06:10:04 AM 40.2617 -75.6122 313° West 351 404 15,700 2,700 Climbing FAA TRACON SMA TRACON (SMA)
Wed 06:10:24 AM 40.2789 -75.6428 306° West 348 400 16,500 2,000 Climbing FAA TRACON SMA TRACON (SMA)
Wed 06:10:43 AM 40.2978 -75.6736 309° West 347 399 17,000 900 Climbing FAA TRACON SMA TRACON (SMA)
Wed 06:11:04 AM 40.3219 -75.7114 310° West 349 402 17,100 146 Climbing FAA TRACON SMA TRACON (SMA)
Wed 06:11:24 AM 40.3406 -75.7367 314° West 351 404 17,100 1,077 Level FAA TRACON SMA TRACON (SMA)
Wed 06:11:43 AM 40.3619 -75.7706 310° West 353 406 17,800 1,050 Climbing FAA TRACON SMA TRACON (SMA)
Wed 06:12:04 AM 40.3619 -75.7706 37° Northeast 353 406 17,800 2,034 Level FAA TRACON SMA TRACON (SMA)
Wed 06:12:42 AM 40.4228 -75.8556 313° West 359 413 19,800 2,625 Climbing New York Center
Wed 06:13:40 AM 40.4550 -75.9806 289° West 359 413 22,000 1,800 Climbing New York Center
Wed 06:14:42 AM 40.4761 -76.1133 282° West 359 413 23,400 1,361 Climbing New York Center
Wed 06:15:39 AM 40.4969 -76.2486 281° West 372 428 24,700 2,136 Climbing New York Center
Wed 06:16:40 AM 40.5389 -76.3775 293° West 384 442 27,600 2,557 Climbing New York Center
Wed 06:17:41 AM 40.6278 -76.4394 332° Northwest 346 398 29,900 1,736 Climbing New York Center
Wed 06:18:41 AM 40.6964 -76.5275 316° Northwest 353 406 31,100 958 Climbing New York Center
Wed 06:19:40 AM 40.6811 -76.6658 262° West 329 379 31,800 1,109 Climbing New York Center
Wed 06:20:40 AM 40.6578 -76.8006 257° West 347 399 33,300 1,500 Climbing New York Center
Wed 06:21:40 AM 40.6322 -76.9294 255° West 365 420 34,800 936 Climbing New York Center
Wed 06:23:33 AM 40.6025 -77.1892 262° West 371 427 36,000 416 Climbing Cleveland Center
Wed 06:24:33 AM 40.6147 -77.3225 277° West 371 427 36,000  Level Cleveland Center
Wed 06:25:33 AM 40.6267 -77.4533 277° West 366 421 36,000  Level Cleveland Center
Wed 06:26:33 AM 40.6386 -77.5869 277° West 366 421 36,000  Level Cleveland Center
Wed 06:27:33 AM 40.6458 -77.7069 275° West 366 421 36,000  Level Cleveland Center
Wed 06:28:33 AM 40.6617 -77.8403 279° West 366 421 36,000  Level Cleveland Center
Wed 06:29:33 AM 40.6794 -77.9711 280° West 366 421 36,000  Level Cleveland Center
Wed 06:30:33 AM 40.6969 -78.1019 280° West 366 421 36,000  Level Cleveland Center
Wed 06:31:33 AM 40.7142 -78.2356 280° West 371 427 36,000  Level Cleveland Center
Wed 06:32:33 AM 40.7336 -78.3692 281° West 371 427 36,000  Level Cleveland Center
Wed 06:33:33 AM 40.7508 -78.5083 279° West 371 427 36,000  Level Cleveland Center
Wed 06:34:33 AM 40.7722 -78.6639 280° West 383 441 36,000  Level Cleveland Center
Wed 06:35:33 AM 40.7914 -78.8058 280° West 389 448 36,000  Level Cleveland Center
Wed 06:36:33 AM 40.8103 -78.9508 280° West 394 453 36,000  Level Cleveland Center
Wed 06:37:33 AM 40.8308 -79.0903 281° West 394 453 36,000  Level Cleveland Center
Wed 06:38:33 AM 40.8494 -79.2353 280° West 399 459 36,000  Level Cleveland Center
Wed 06:39:33 AM 40.8675 -79.3778 280° West 399 459 36,000  Level Cleveland Center
Wed 06:40:33 AM 40.8878 -79.5203 281° West 399 459 36,000  Level Cleveland Center
Wed 06:41:33 AM 40.9036 -79.6519 279° West 399 459 36,000  Level Cleveland Center
Wed 06:42:33 AM 40.9211 -79.7917 279° West 404 465 36,000  Level Cleveland Center
Wed 06:43:33 AM 40.9367 -79.9344 278° West 404 465 36,000  Level Cleveland Center
Wed 06:44:33 AM 40.9561 -80.0772 280° West 404 465 36,000  Level Cleveland Center
Wed 06:45:33 AM 40.9733 -80.2200 279° West 404 465 36,000  Level Cleveland Center
Wed 06:46:33 AM 40.9883 -80.3603 278° West 399 459 36,000  Level Cleveland Center
Wed 06:47:33 AM 41.0053 -80.5089 279° West 399 459 36,000  Level Cleveland Center
Wed 06:48:33 AM 41.0219 -80.6519 279° West 404 465 36,000  Level Cleveland Center
Wed 06:49:33 AM 41.0406 -80.8006 279° West 409 471 36,000  Level Cleveland Center
Wed 06:50:33 AM 41.0547 -80.9467 277° West 409 471 36,000  Level Cleveland Center
Wed 06:51:33 AM 41.0625 -81.1119 274° West 409 471 36,000  Level Cleveland Center
Wed 06:52:33 AM 41.0700 -81.2442 274° West 409 471 36,000  Level Cleveland Center
Wed 06:53:33 AM 41.0775 -81.3928 274° West 409 471 36,000  Level Cleveland Center
Wed 06:54:33 AM 41.0867 -81.5419 275° West 409 471 36,000  Level Cleveland Center
Wed 06:55:33 AM 41.0958 -81.6936 275° West 409 471 36,000  Level Cleveland Center
Wed 06:56:33 AM 41.1064 -81.8589 275° West 409 471 36,000  Level Cleveland Center
Wed 06:57:33 AM 41.1131 -82.0081 273° West 409 471 36,000  Level Cleveland Center
Wed 06:58:33 AM 41.1236 -82.1569 275° West 409 471 36,000  Level Cleveland Center
Wed 06:59:33 AM 41.1319 -82.3061 274° West 409 471 36,000  Level Cleveland Center
Wed 07:00:33 AM 41.1400 -82.4553 274° West 408 470 36,000  Level Cleveland Center
Wed 07:01:33 AM 41.1478 -82.6072 274° West 408 470 36,000  Level Cleveland Center
Wed 07:02:33 AM 41.1536 -82.7453 273° West 413 475 36,000  Level Cleveland Center
Wed 07:03:33 AM 41.1611 -82.8972 274° West 418 481 36,000  Level Cleveland Center
Wed 07:04:33 AM 41.1683 -83.0519 274° West 418 481 36,000  Level Cleveland Center
Wed 07:05:33 AM 41.1772 -83.2150 274° West 423 487 36,000  Level Cleveland Center
Wed 07:06:33 AM 41.1839 -83.3697 273° West 423 487 36,000  Level Cleveland Center
Wed 07:07:33 AM 41.1925 -83.5247 274° West 423 487 36,000  Level Cleveland Center
Wed 07:08:33 AM 41.1967 -83.6794 272° West 423 487 36,000  Level Cleveland Center
Wed 07:09:33 AM 41.2028 -83.8317 273° West 423 487 36,000  Level Cleveland Center
Wed 07:10:33 AM 41.2131 -83.9867 275° West 423 487 36,000  Level Cleveland Center
Wed 07:11:31 AM 41.2200 -84.1325 274° West 418 481 36,000 -305 Level Chicago Center
Wed 07:12:31 AM 41.2253 -84.2867 273° West 418 481 35,400 -793 Descending Chicago Center
Wed 07:13:32 AM 41.2297 -84.4394 272° West 415 478 34,400 -689 Descending Chicago Center
Wed 07:14:33 AM 41.2331 -84.5928 272° West 416 479 34,000 -197 Descending Chicago Center
Wed 07:15:34 AM 41.2383 -84.7436 273° West 407 468 34,000  Level Chicago Center
Wed 07:16:34 AM 41.2428 -84.8925 272° West 404 465 34,000 -446 Level Chicago Center
Wed 07:17:35 AM 41.2483 -85.0411 273° West 404 465 33,100 -934 Descending Chicago Center
Wed 07:18:36 AM 41.2539 -85.1914 273° West 404 465 32,100 -984 Descending Chicago Center
Wed 07:19:37 AM 41.2592 -85.3361 273° West 395 455 31,100 -1,328 Descending Chicago Center
Wed 07:20:38 AM 41.2639 -85.4789 273° West 386 444 29,400 -1,869 Descending Chicago Center
Wed 07:21:39 AM 41.2692 -85.6183 273° West 377 434 27,300 -2,083 Descending Chicago Center
Wed 07:22:39 AM 41.2856 -85.7508 279° West 363 418 25,200 -1,140 Descending Chicago Center
Wed 07:23:40 AM 41.3100 -85.8786 284° West 357 411 25,000 -98 Descending Chicago Center
Wed 07:24:41 AM 41.3369 -86.0078 286° West 360 414 25,000  Level Chicago Center
Wed 07:25:42 AM 41.3636 -86.1364 285° West 361 415 25,000  Level Chicago Center
Wed 07:26:43 AM 41.3886 -86.2644 285° West 358 412 25,000 -537 Level Chicago Center
Wed 07:27:45 AM 41.4136 -86.3911 285° West 356 410 23,900 -1,512 Descending Chicago Center
Wed 07:28:46 AM 41.4394 -86.5158 285° West 351 404 21,900 -2,164 Descending Chicago Center
Wed 07:29:47 AM 41.4683 -86.6617 285° West 341 392 19,500 -2,016 Descending Chicago Center
Wed 07:30:48 AM 41.4881 -86.7633 285° West 338 389 17,800 -2,016 Descending Chicago Center
Wed 07:31:49 AM 41.5150 -86.9033 284° West 327 376 15,400 -2,164 Descending Chicago Center
Wed 07:32:50 AM 41.5369 -87.0164 285° West 319 367 13,400 -1,623 Descending Chicago Center
Wed 07:33:51 AM 41.5586 -87.1267 285° West 310 357 12,100 -1,024 Descending Chicago Center
Wed 07:34:12 AM 41.5667 -87.1667 285° West 320 368 12,000 -74 Descending Chicago TRACON
Wed 07:35:12 AM 41.6000 -87.2833 291° West 335 386 12,000  Level Chicago TRACON
Wed 07:35:54 AM 41.6406 -87.3392 314° West 342 394 12,000  Level Chicago Center
Wed 07:36:55 AM 41.6994 -87.4353 309° West 338 389 12,000  Level Chicago Center
Wed 07:37:56 AM 41.7586 -87.5311 310° West 338 389 12,000 -293 Level Chicago Center
Wed 07:38:58 AM 41.8231 -87.6342 310° West 302 348 11,400 -805 Descending Chicago Center
Wed 07:39:18 AM 41.8333 -87.6500 311° West 277 319 10,900 -1,500 Descending Chicago TRACON
Wed 07:40:18 AM 41.8833 -87.7333 309° West 264 304 9,400 -1,488 Descending Chicago TRACON
Wed 07:41:19 AM 41.9000 -87.8333 283° West 256 295 7,900 -1,091 Descending Chicago TRACON
Wed 07:42:19 AM 41.9000 -87.9167 270° West 225 259 7,200 -450 Descending Chicago TRACON
Wed 07:43:19 AM 41.9000 -87.9833 270° West 184 212 7,000 -100 Descending Chicago TRACON
Wed 07:44:19 AM 41.9000 -88.0500 270° West 173 199 7,000 -50 Level Chicago TRACON
Wed 07:45:19 AM 41.8833 -88.1167 251° West 172 198 6,900 -556 Descending Chicago TRACON
Wed 07:46:07 AM 41.8844 -88.1658 272° West 171 197 6,000 -1,036 Descending Chicago Center
Wed 07:47:09 AM 41.8800 -88.2294 265° West 172 198 5,000 -488 Descending Chicago Center
Wed 07:48:10 AM 41.8778 -88.2933 267° West 172 198 5,000  Level Chicago Center
Wed 07:49:11 AM 41.8817 -88.3583 275° West 174 200 5,000  Level Chicago Center
Wed 07:50:13 AM 41.8828 -88.4211 271° West 175 201 5,000  Level Chicago Center
Wed 07:51:14 AM 41.9428 -88.4242 358° North 211 243 5,000  Level Chicago Center
Wed 07:52:15 AM 41.9667 -88.3483 67° East 233 268 5,000  Level Chicago Center
Wed 07:53:17 AM 41.9675 -88.2736 89° East 212 244 5,000 -244 Level Chicago Center
Wed 07:54:18 AM 41.9683 -88.1867 89° East 197 227 4,500 -769 Descending Chicago Center
Wed 07:55:14 AM 41.9667 -88.1167 92° East 184 212 3,500 -1,071 Descending Chicago TRACON

Login

Don't have an account? Register now (free) for customized features, flight alerts, and more!